Latest Weather Observations for Lucas Heights (ANSTO)

IDN60901

Issued at 2:41 pm EDT Tuesday 30 November 2021 (issued every 10 minutes, with the page automatically refreshed every 10 minutes)

About weather observations | Map of Sydney area stations | Latest observations for Sydney area | Other Formats
Station Details ID: 066023 Name: LUCAS HEIGHTS (ANSTO) Lat: -34.05 Lon: 150.98 Height: 140.0 m
Data from the previous 72 hours. | See also: Recent months for locations in New South Wales
Date/Time
EDT
Temp
°C
App
Temp
°C
Dew
Point
°C
Rel
Hum
%
Delta-T
°C
Wind Press
QNH
hPa
Press
MSL
hPa
Rain since
9am
mm
Dir  Spd
km/h
Gust
km/h
Spd
kts
Gust
kts
30/02:30pm 19.1 - - - - E 11 13 6 7 1015.4 - 0.0
30/02:15pm 19.4 - - - - ENE 7 9 4 5 1016.4 - 0.0
30/02:00pm 19.5 - - - - E 9 11 5 6 1017.7 - 0.0
30/01:45pm 19.8 - - - - ENE 9 13 5 7 1018.3 - 0.0
30/01:30pm 20.1 - - - - NE 11 13 6 7 1018.0 - 0.0
30/01:15pm 20.2 - - - - ENE 9 13 5 7 1017.3 - 0.0
30/01:00pm 20.0 - - - - E 9 13 5 7 1017.7 - 0.0
30/12:45pm 20.2 - - - - ENE 9 13 5 7 1019.1 - 0.0
30/12:30pm 20.1 - - - - E 9 13 5 7 1018.5 - 0.0
30/12:15pm 20.0 - - - - E 9 13 5 7 1018.2 - 0.0
30/12:00pm 20.2 - - - - NE 7 11 4 6 1019.4 - 0.0
30/11:45am 20.1 - - - - NE 7 9 4 5 1019.9 - 0.0
30/11:30am 20.0 - - - - NE 7 9 4 5 1019.7 - 0.0
30/11:15am 20.0 - - - - NE 9 13 5 7 1019.7 - 0.0
30/11:00am 19.9 - - - - NNE 7 13 4 7 1020.0 - 0.0
30/10:45am 20.0 - - - - N 6 9 3 5 1020.0 - 0.0
30/10:30am 19.9 - - - - NE 4 9 2 5 1019.4 - 0.0
30/10:15am 19.6 - - - - NNE 6 9 3 5 1020.7 - 0.0
30/10:00am 19.6 - - - - NNE 6 9 3 5 1020.7 - 0.0
30/09:45am 19.7 - - - - NE 7 9 4 5 1020.0 - 0.0
30/09:30am 19.2 - - - - ENE 6 7 3 4 1019.9 - 0.0
30/09:15am - - - - - - - - - - - - 0.0
30/09:00am 18.8 - - - - NE 2 6 1 3 1019.8 - 0.0
30/08:45am 18.4 - - - - NE 4 7 2 4 1019.9 - 0.0
30/08:30am 18.3 - - - - ENE 6 7 3 4 1020.0 - 0.0
30/08:15am 18.0 - - - - E 4 6 2 3 1019.5 - 0.0
30/08:00am 17.9 - - - - NE 2 6 1 3 1019.7 - 0.0
30/07:45am 17.7 - - - - E 2 6 1 3 1019.6 - 0.0
30/07:30am 17.3 - - - - ESE 4 7 2 4 1019.0 - 0.0
30/07:15am 17.1 - - - - ENE 7 7 4 4 1019.4 - 0.0
30/07:00am 16.9 - - - - NE 6 7 3 4 1018.5 - 0.0
30/06:45am 16.6 - - - - NE 7 13 4 7 1017.8 - 0.0
30/06:30am 16.4 - - - - S 9 15 5 8 1017.3 - 0.0
30/06:15am 16.3 - - - - S 7 9 4 5 1017.1 - 0.0
30/06:00am 16.3 - - - - S 7 7 4 4 1017.1 - 0.0
30/05:45am 16.3 - - - - S 7 7 4 4 1017.1 - 0.0
30/05:30am 16.2 - - - - S 9 9 5 5 1017.2 - 0.0
30/05:15am 16.2 - - - - S 9 9 5 5 1015.6 - 0.0
30/05:00am 16.2 - - - - S 9 9 5 5 1015.0 - 0.0
30/04:45am 16.2 - - - - S 9 9 5 5 1015.2 - 0.0
30/04:30am 16.1 - - - - S 9 9 5 5 1015.2 - 0.0
30/04:15am 16.2 - - - - S 6 7 3 4 1015.4 - 0.0
30/04:00am 16.3 - - - - S 4 4 2 2 1015.5 - 0.0
30/03:45am 16.2 - - - - S 2 4 1 2 1015.7 - 0.0
30/03:30am 16.3 - - - - CALM 0 4 0 2 1015.9 - 0.0
30/03:15am 16.4 - - - - CALM 0 2 0 1 1016.1 - 0.0
30/03:00am 16.6 - - - - ENE 2 4 1 2 1016.3 - 0.0
30/02:45am 16.6 - - - - E 2 4 1 2 1016.6 - 0.0
30/02:30am 16.7 - - - - E 2 4 1 2 1016.8 - 0.0
30/02:15am 16.9 - - - - NNE 4 7 2 4 1016.9 - 0.0
30/02:00am 16.7 - - - - NE 6 9 3 5 1017.1 - 0.0
30/01:45am 16.7 - - - - E 4 4 2 2 1017.3 - 0.0
30/01:30am 16.8 - - - - E 4 4 2 2 1017.6 - 0.0
30/01:15am 16.9 - - - - E 4 4 2 2 1017.8 - 0.0
30/01:00am 16.9 - - - - E 4 4 2 2 1018.0 - 0.0
30/12:45am 17.1 - - - - ENE 2 4 1 2 1018.2 - 0.0
30/12:30am 17.3 - - - - NNE 4 7 2 4 1018.1 - 0.0
30/12:15am 17.3 - - - - NE 6 7 3 4 1018.0 - 0.0
30/12:00am 17.2 - - - - NE 6 7 3 4 1017.9 - 0.0
 
Date/Time
EDT
Temp
°C
App
Temp
°C
Dew
Point
°C
Rel
Hum
%
Delta-T
°C
Wind Press
QNH
hPa
Press
MSL
hPa
Rain since
9am
mm
Dir  Spd
km/h
Gust
km/h
Spd
kts
Gust
kts
29/11:45pm 17.2 - - - - NE 6 9 3 5 1017.9 - 0.0
29/11:30pm 17.2 - - - - NNE 7 9 4 5 1017.8 - 0.0
29/11:15pm 17.2 - - - - NE 9 11 5 6 1017.8 - 0.0
29/11:00pm 17.2 - - - - NE 9 13 5 7 1017.7 - 0.0
29/10:45pm 17.0 - - - - NE 9 11 5 6 1017.6 - 0.0
29/10:30pm 17.0 - - - - NE 9 13 5 7 1017.5 - 0.0
29/10:15pm 17.0 - - - - NE 9 9 5 5 1017.4 - 0.0
29/10:00pm 16.9 - - - - NE 9 9 5 5 1017.2 - 0.0
29/09:45pm 16.9 - - - - ENE 7 11 4 6 1017.1 - 0.0
29/09:30pm 16.7 - - - - ENE 9 13 5 7 1017.1 - 0.0
29/09:15pm 16.6 - - - - E 7 11 4 6 1017.1 - 0.0
29/09:00pm 16.6 - - - - E 9 13 5 7 1016.6 - 0.0
29/08:45pm 16.7 - - - - E 9 11 5 6 1016.9 - 0.0
29/08:30pm 16.7 - - - - E 9 13 5 7 1017.1 - 0.0
29/08:15pm 16.8 - - - - E 11 13 6 7 1017.0 - 0.0
29/08:00pm 17.1 - - - - E 13 17 7 9 1016.4 - 0.0
29/07:45pm 17.3 - - - - E 13 15 7 8 1016.6 - 0.0
29/07:30pm 17.5 - - - - E 13 20 7 11 1015.8 - 0.0
29/07:15pm 17.7 - - - - E 15 19 8 10 1016.3 - 0.0
29/07:00pm 17.7 - - - - E 13 19 7 10 1016.5 - 0.0
29/06:45pm 17.7 - - - - E 15 17 8 9 1015.9 - 0.0
29/06:30pm 17.8 - - - - E 15 19 8 10 1017.1 - 0.0
29/06:15pm 17.8 - - - - E 15 19 8 10 1016.7 - 0.0
29/06:00pm 18.0 - - - - E 15 19 8 10 1016.2 - 0.0
29/05:45pm 18.1 - - - - E 15 20 8 11 1016.5 - 0.0
29/05:30pm 18.1 - - - - E 15 19 8 10 1016.4 - 0.0
29/05:15pm 18.0 - - - - E 13 19 7 10 1016.9 - 0.0
29/05:00pm 18.2 - - - - E 17 20 9 11 1016.2 - 0.0
29/04:45pm 18.4 - - - - E 19 20 10 11 1015.7 - 0.0
29/04:30pm 18.7 - - - - E 15 19 8 10 1015.7 - 0.0
29/04:15pm 18.8 - - - - E 15 20 8 11 1016.0 - 0.0
29/04:00pm 18.9 - - - - E 17 20 9 11 1016.5 - 0.0
29/03:45pm 20.0 - - - - ENE 17 22 9 12 1018.7 - 0.0
29/03:30pm 20.7 - - - - NE 17 19 9 10 1019.1 - 0.0
29/03:15pm 20.9 - - - - E 15 19 8 10 1019.8 - 0.0
29/03:00pm 20.7 - - - - E 15 19 8 10 1020.1 - 0.0
29/02:45pm 20.9 - - - - NE 9 17 5 9 1019.6 - 0.0
29/02:30pm 21.2 - - - - NE 11 19 6 10 1019.9 - 0.0
29/02:15pm 20.3 - - - - N 7 13 4 7 1019.4 - 0.0
29/02:00pm 20.4 - - - - NE 11 15 6 8 1018.9 - 0.0
29/01:45pm 19.9 - - - - NE 11 15 6 8 1018.6 - 0.0
29/01:30pm 19.8 - - - - N 7 13 4 7 1018.9 - 0.0
29/01:15pm 19.7 - - - - N 9 15 5 8 1020.1 - 0.0
29/01:00pm 19.9 - - - - NW 11 20 6 11 1021.4 - 0.0
29/12:45pm 20.0 - - - - E 7 13 4 7 1021.3 - 0.0
29/12:30pm 20.4 - - - - NNE 13 19 7 10 1020.9 - 0.0
29/12:15pm 19.5 - - - - NW 7 15 4 8 1021.9 - 0.0
29/12:00pm 19.4 - - - - W 7 13 4 7 1021.6 - 0.0
29/11:45am 19.3 - - - - WNW 7 13 4 7 1022.1 - 0.0
29/11:30am 19.0 - - - - N 6 9 3 5 1022.1 - 0.0
29/11:15am 18.7 - - - - ENE 4 11 2 6 1022.2 - 0.0
29/11:00am 18.7 - - - - E 6 9 3 5 1022.3 - 0.0
29/10:45am 18.1 - - - - WSW 4 7 2 4 1023.4 - 0.0
29/10:30am 18.2 - - - - S 4 7 2 4 1023.3 - 0.0
29/10:15am 17.9 - - - - S 6 7 3 4 1023.8 - 0.0
29/10:00am 17.8 - - - - S 6 9 3 5 1023.2 - 0.0
29/09:47am 17.5 - - - - SSE 6 9 3 5 1023.1 - 0.0
29/03:15am 12.7 - - - - SSW 11 11 6 6 1020.0 - 0.0
29/03:00am 12.6 - - - - SSW 9 11 5 6 1020.1 - 0.0
29/02:45am 12.5 - - - - SSW 9 9 5 5 1020.3 - 0.0
29/02:30am 12.5 - - - - SSW 7 9 4 5 1020.4 - 0.0
29/02:15am 12.5 - - - - SSW 9 11 5 6 1020.6 - 0.0
29/02:00am 12.4 - - - - S 13 15 7 8 1018.7 - 0.0
29/01:45am 12.6 - - - - SSW 11 13 6 7 1019.2 - 0.0
29/01:30am 12.8 - - - - S 11 13 6 7 1019.6 - 0.0
29/01:15am 12.9 - - - - S 11 13 6 7 1020.4 - 0.0
29/01:00am 13.2 - - - - S 11 13 6 7 1021.2 - 0.0
29/12:45am 13.3 - - - - S 11 13 6 7 1021.5 - 0.0
29/12:30am 13.4 - - - - SSW 11 13 6 7 1021.6 - 0.0
29/12:15am 13.4 - - - - SSW 13 13 7 7 1021.8 - 0.0
29/12:00am 13.5 - - - - SSW 13 13 7 7 1022.3 - 0.0
 
Date/Time
EDT
Temp
°C
App
Temp
°C
Dew
Point
°C
Rel
Hum
%
Delta-T
°C
Wind Press
QNH
hPa
Press
MSL
hPa
Rain since
9am
mm
Dir  Spd
km/h
Gust
km/h
Spd
kts
Gust
kts
28/11:45pm 13.7 - - - - SSW 9 11 5 6 1022.5 - 0.0
28/11:30pm 13.9 - - - - SSW 9 11 5 6 1022.7 - 0.0
28/11:15pm 14.0 - - - - SSW 9 9 5 5 1022.8 - 0.0
28/11:00pm 13.9 - - - - S 9 13 5 7 1021.7 - 0.0
28/10:45pm 14.0 - - - - S 11 13 6 7 1021.6 - 0.0
28/10:30pm 14.2 - - - - S 11 17 6 9 1020.8 - 0.0
28/10:15pm 14.6 - - - - S 11 15 6 8 1020.7 - 0.0
28/10:00pm 14.7 - - - - S 7 13 4 7 1021.1 - 0.0
28/09:45pm 14.7 - - - - S 9 13 5 7 1021.3 - 0.0
28/09:30pm 14.8 - - - - S 11 19 6 10 1021.8 - 0.0
28/09:15pm 14.9 - - - - SSE 11 19 6 10 1022.0 - 0.0
28/09:00pm 14.9 - - - - SSE 13 22 7 12 1020.1 - 0.0
28/08:45pm 14.9 - - - - SSE 11 19 6 10 1020.4 - 0.0
28/08:30pm 14.9 - - - - SSE 19 24 10 13 1020.8 - 0.0
28/08:15pm 14.9 - - - - SSE 13 20 7 11 1021.7 - 0.0
28/08:00pm 15.0 - - - - SSE 17 24 9 13 1021.9 - 0.0
28/07:45pm 15.2 - - - - SSE 19 26 10 14 1022.0 - 0.0
28/07:30pm 15.4 - - - - SSE 20 28 11 15 1022.4 - 0.0
28/07:15pm 15.5 - - - - SSE 19 28 10 15 1019.8 - 0.0
28/07:00pm 15.5 - - - - SSE 20 26 11 14 1020.8 - 0.0
28/06:45pm 15.6 - - - - SSE 20 26 11 14 1020.3 - 0.0
28/06:30pm 15.7 - - - - SSE 20 26 11 14 1020.6 - 0.0
28/06:15pm 15.8 - - - - SSE 19 30 10 16 1021.0 - 0.0
28/06:00pm 16.0 - - - - SSE 24 30 13 16 1020.9 - 0.0
28/05:45pm 16.0 - - - - SSE 26 35 14 19 1019.3 - 0.0
28/05:30pm 16.1 - - - - SSE 26 41 14 22 1020.2 - 0.0
28/05:15pm 16.4 - - - - SSE 30 39 16 21 1019.6 - 0.0
28/05:00pm 16.3 - - - - SSE 32 43 17 23 1020.3 - 0.0
28/04:45pm 16.4 - - - - SSE 33 43 18 23 1021.1 - 0.0
28/04:30pm 16.6 - - - - SSE 26 33 14 18 1021.4 - 0.0
28/04:15pm 16.7 - - - - SSE 28 35 15 19 1021.5 - 0.0
28/04:00pm 16.6 - - - - SSE 30 41 16 22 1021.8 - 0.0
28/03:45pm 16.8 - - - - SSE 32 44 17 24 1021.8 - 0.0
28/03:30pm 17.3 - - - - SSE 30 39 16 21 1022.8 - 0.0
28/03:15pm 17.6 - - - - SSE 26 35 14 19 1023.8 - 0.0
28/03:00pm 18.1 - - - - SSE 30 41 16 22 1023.8 - 0.0
28/02:45pm 18.2 - - - - SSE 28 39 15 21 1023.7 - 0.0
28/02:30pm 17.9 - - - - SSE 28 35 15 19 1023.5 - 0.0
28/02:15pm 17.9 - - - - SSE 30 35 16 19 1022.8 - 0.0
28/02:00pm 17.5 - - - - SSE 30 37 16 20 1022.2 - 0.0
28/01:45pm 17.5 - - - - SSE 32 41 17 22 1022.1 - 0.0
28/01:30pm 17.0 - - - - S 28 35 15 19 1022.0 - 0.0
28/01:15pm 16.7 - - - - SSE 30 35 16 19 1022.7 - 0.0
28/01:00pm 17.1 - - - - SSE 24 35 13 19 1023.8 - 0.0
28/12:45pm 17.3 - - - - SSE 28 35 15 19 1023.8 - 0.0
28/12:30pm 17.3 - - - - SSE 28 35 15 19 1024.0 - 0.0
28/12:15pm 17.6 - - - - SSE 28 41 15 22 1024.3 - 0.0
28/12:00pm 18.0 - - - - SSE 28 33 15 18 1023.9 - 0.0
28/11:45am 18.8 - - - - SSE 26 33 14 18 1023.0 - 0.0
28/11:30am 17.6 - - - - S 24 33 13 18 1021.3 - 0.0
28/11:15am 17.0 - - - - SSE 22 35 12 19 1022.2 - 0.0
28/11:00am 16.7 - - - - SSE 22 35 12 19 1024.1 - 0.0
28/10:45am 17.5 - - - - SSE 26 39 14 21 1024.7 - 0.0
28/10:30am 17.5 - - - - SSE 26 35 14 19 1024.0 - 0.0
28/10:15am 17.3 - - - - SSE 22 35 12 19 1022.6 - 0.0
28/10:00am 16.4 - - - - SSE 30 37 16 20 1022.8 - 0.0
28/09:45am 16.7 - - - - SSE 30 46 16 25 1024.2 - 0.0
28/09:30am 16.7 - - - - SSE 37 44 20 24 1024.4 - 0.0
28/09:15am 16.4 - - - - SSE 32 43 17 23 1024.4 - 0.0
28/09:00am 16.6 - - - - SSE 28 35 15 19 1024.4 - 0.6
28/08:45am 16.0 - - - - SSE 32 39 17 21 1024.9 - 0.6
28/08:30am 16.0 - - - - SSE 30 35 16 19 1025.7 - 0.6
28/08:15am 15.5 - - - - S 22 35 12 19 1025.3 - 0.6
28/08:00am 14.8 - - - - SSE 26 37 14 20 1025.0 - 0.6
28/07:45am 14.8 - - - - S 22 32 12 17 1024.2 - 0.6
28/07:30am 14.3 - - - - S 17 24 9 13 1022.9 - 0.6
28/07:15am 14.0 - - - - S 20 33 11 18 1022.7 - 0.6
28/07:00am 14.0 - - - - S 17 20 9 11 1022.4 - 0.6
28/06:45am 13.8 - - - - S 17 26 9 14 1022.1 - 0.6
28/06:30am 13.8 - - - - S 19 26 10 14 1021.8 - 0.6
28/06:15am 13.7 - - - - S 19 24 10 13 1021.5 - 0.6
28/06:00am 13.8 - - - - S 17 24 9 13 1021.5 - 0.6
28/05:45am 14.0 - - - - S 17 28 9 15 1021.5 - 0.6
28/05:30am 14.2 - - - - S 15 26 8 14 1020.5 - 0.6
28/05:15am 14.2 - - - - S 17 24 9 13 1020.5 - 0.6
28/05:00am 14.2 - - - - S 19 30 10 16 1020.4 - 0.6
28/04:45am 14.1 - - - - S 17 28 9 15 1020.4 - 0.6
28/04:30am 14.2 - - - - SSE 17 33 9 18 1020.7 - 0.6
28/04:15am 14.3 - - - - SSE 20 33 11 18 1020.7 - 0.6
28/04:00am 14.2 - - - - S 22 32 12 17 1020.8 - 0.6
28/03:45am 14.2 - - - - S 22 33 12 18 1021.3 - 0.6
28/03:30am 14.5 - - - - S 15 24 8 13 1021.7 - 0.6
28/03:15am 14.6 - - - - S 20 28 11 15 1021.8 - 0.6
28/03:00am 14.6 - - - - SSE 17 20 9 11 1022.0 - 0.6
28/02:45am 14.7 - - - - SSE 19 28 10 15 1023.1 - 0.6
28/02:30am 14.8 - - - - S 20 30 11 16 1023.9 - 0.6
28/02:15am 14.8 - - - - SSE 20 26 11 14 1023.8 - 0.6
28/02:00am 14.8 - - - - SSE 22 33 12 18 1023.7 - 0.6
28/01:45am 14.7 - - - - SSE 26 33 14 18 1023.4 - 0.6
28/01:30am 14.6 - - - - SSE 20 37 11 20 1023.3 - 0.6
28/01:15am 14.6 - - - - SSE 19 32 10 17 1023.1 - 0.6
28/01:00am 14.7 - - - - SSE 24 33 13 18 1022.8 - 0.6
28/12:45am 14.5 - - - - SSE 22 33 12 18 1022.5 - 0.6
28/12:30am 14.2 - - - - SSE 24 37 13 20 1022.6 - 0.6
28/12:15am 14.0 - - - - SSE 26 33 14 18 1023.1 - 0.6
28/12:00am 14.5 - - - - SSE 32 39 17 21 1023.7 - 0.6
 
Date/Time
EDT
Temp
°C
App
Temp
°C
Dew
Point
°C
Rel
Hum
%
Delta-T
°C
Wind Press
QNH
hPa
Press
MSL
hPa
Rain since
9am
mm
Dir  Spd
km/h
Gust
km/h
Spd
kts
Gust
kts
27/11:45pm 14.8 - - - - SSE 20 26 11 14 1023.6 - 0.6
27/11:30pm 14.8 - - - - S 19 26 10 14 1023.3 - 0.6
27/11:15pm 14.8 - - - - S 15 24 8 13 1022.2 - 0.6
27/11:00pm 14.6 - - - - S 15 22 8 12 1021.5 - 0.6
27/10:45pm 14.5 - - - - S 19 24 10 13 1021.5 - 0.6
27/10:30pm 14.1 - - - - SSE 20 30 11 16 1021.6 - 0.6
27/10:15pm 13.8 - - - - SSE 20 30 11 16 1021.6 - 0.6
27/10:00pm 13.7 - - - - S 19 24 10 13 1021.7 - 0.6
27/09:45pm 13.7 - - - - S 26 35 14 19 1021.8 - 0.6
27/09:30pm 14.0 - - - - SSE 30 39 16 21 1021.7 - 0.6
27/09:15pm 14.5 - - - - SSE 32 50 17 27 1021.5 - 0.6
27/09:00pm 14.4 - - - - SSE 26 33 14 18 1021.3 - 0.6
27/08:45pm 14.3 - - - - SSE 24 33 13 18 1021.2 - 0.6
27/08:30pm 14.5 - - - - SSE 30 39 16 21 1021.1 - 0.6
27/08:15pm 14.8 - - - - SSE 26 43 14 23 1021.0 - 0.6
27/08:00pm 14.6 - - - - SSE 20 30 11 16 1020.9 - 0.6
27/07:45pm 14.6 - - - - SSE 24 33 13 18 1020.7 - 0.6
27/07:30pm 14.7 - - - - SSE 30 43 16 23 1020.5 - 0.6
27/07:15pm 15.0 - - - - SSE 33 50 18 27 1020.4 - 0.6
27/07:00pm 15.1 - - - - SSE 30 44 16 24 1020.2 - 0.6
27/06:45pm 15.2 - - - - SSE 32 46 17 25 1020.0 - 0.6
27/06:30pm 15.1 - - - - SSE 32 46 17 25 1019.8 - 0.6
27/06:15pm 15.0 - - - - SSE 43 52 23 28 1019.6 - 0.6
27/06:00pm 15.3 - - - - SSE 39 50 21 27 1019.6 - 0.6
27/05:45pm 15.3 - - - - SSE 37 50 20 27 1019.5 - 0.6
27/05:30pm 15.2 - - - - SSE 39 50 21 27 1019.4 - 0.6
27/05:15pm 14.9 - - - - SSE 33 44 18 24 1019.5 - 0.6
27/05:00pm 15.8 - - - - SSE 30 44 16 24 1019.2 - 0.6
27/04:45pm 15.8 - - - - SSE 30 46 16 25 1019.1 - 0.6
27/04:30pm 15.4 - - - - SSE 33 48 18 26 1019.2 - 0.6
27/04:15pm 15.7 - - - - SSE 33 41 18 22 1019.2 - 0.6
27/04:00pm 15.7 - - - - SSE 33 46 18 25 1019.3 - 0.6
27/03:45pm 15.2 - - - - SSE 35 44 19 24 1019.3 - 0.6
27/03:30pm 16.1 - - - - SSE 41 56 22 30 1018.9 - 0.6
27/03:15pm 16.2 - - - - SSE 32 46 17 25 1018.9 - 0.6
27/03:00pm 16.4 - - - - SSE 44 59 24 32 1018.8 - 0.6
27/02:45pm 16.9 - - - - S 39 57 21 31 1018.7 - 0.6

Latest Capital City Observations: Canberra | Sydney | Melbourne | Brisbane | Adelaide | Perth | Hobart | Darwin

Other formats

Comma delimited format used in spreadsheet applications
http://www.bom.gov.au/fwo/IDN60901/IDN60901.95757.axf

JavaScript Object Notation format (JSON) in row-major order
http://www.bom.gov.au/fwo/IDN60901/IDN60901.95757.json

Data quality

Most of these data are generated automatically and are frequently updated. Quality checks on data are not normally performed. It is possible for incorrect values to appear. Refer to information at About Latest Weather Observations and please check the disclaimer before using these data.